sensor_id;sensor_type;location;lat;lon;timestamp;P1;durP1;ratioP1;P2;durP2;ratioP2
71288;SDS011;59068;52.502;9.860;2022-09-09T00:07:50;3.07;;;2.87;;
71288;SDS011;59068;52.502;9.860;2022-09-09T00:10:33;2.73;;;2.53;;
71288;SDS011;59068;52.502;9.860;2022-09-09T00:16:22;2.50;;;2.30;;
71288;SDS011;59068;52.502;9.860;2022-09-09T00:21:38;2.07;;;1.83;;
71288;SDS011;59068;52.502;9.860;2022-09-09T00:24:10;2.63;;;1.80;;
71288;SDS011;59068;52.502;9.860;2022-09-09T00:26:42;2.00;;;1.80;;
71288;SDS011;59068;52.502;9.860;2022-09-09T00:32:22;2.43;;;1.63;;
71288;SDS011;59068;52.502;9.860;2022-09-09T00:37:47;2.07;;;1.40;;
71288;SDS011;59068;52.502;9.860;2022-09-09T00:40:21;2.50;;;1.30;;
71288;SDS011;59068;52.502;9.860;2022-09-09T00:48:48;2.10;;;1.70;;
71288;SDS011;59068;52.502;9.860;2022-09-09T01:08:02;1.37;;;1.27;;
71288;SDS011;59068;52.502;9.860;2022-09-09T01:10:53;1.77;;;1.40;;
71288;SDS011;59068;52.502;9.860;2022-09-09T01:13:24;1.43;;;1.33;;
71288;SDS011;59068;52.502;9.860;2022-09-09T01:15:53;1.37;;;1.23;;
71288;SDS011;59068;52.502;9.860;2022-09-09T01:18:21;1.40;;;1.30;;
71288;SDS011;59068;52.502;9.860;2022-09-09T01:26:48;2.33;;;1.30;;
71288;SDS011;59068;52.502;9.860;2022-09-09T01:29:17;1.37;;;1.23;;
71288;SDS011;59068;52.502;9.860;2022-09-09T01:34:50;0.87;;;0.87;;
71288;SDS011;59068;52.502;9.860;2022-09-09T01:37:17;1.13;;;1.00;;
71288;SDS011;59068;52.502;9.860;2022-09-09T01:39:43;1.30;;;1.00;;
71288;SDS011;59068;52.502;9.860;2022-09-09T01:42:12;1.10;;;1.00;;
71288;SDS011;59068;52.502;9.860;2022-09-09T01:44:39;1.73;;;1.27;;
71288;SDS011;59068;52.502;9.860;2022-09-09T01:47:05;1.20;;;1.00;;
71288;SDS011;59068;52.502;9.860;2022-09-09T01:49:31;1.53;;;1.00;;
71288;SDS011;59068;52.502;9.860;2022-09-09T01:51:58;1.13;;;1.00;;
71288;SDS011;59068;52.502;9.860;2022-09-09T01:54:26;1.37;;;1.10;;
71288;SDS011;59068;52.502;9.860;2022-09-09T01:57:06;2.20;;;1.00;;
71288;SDS011;59068;52.502;9.860;2022-09-09T02:00:07;1.63;;;0.93;;
71288;SDS011;59068;52.502;9.860;2022-09-09T02:03:00;1.83;;;0.90;;
71288;SDS011;59068;52.502;9.860;2022-09-09T02:08:20;2.20;;;0.77;;
71288;SDS011;59068;52.502;9.860;2022-09-09T02:10:58;2.03;;;1.00;;
71288;SDS011;59068;52.502;9.860;2022-09-09T02:13:30;0.90;;;0.90;;
71288;SDS011;59068;52.502;9.860;2022-09-09T02:16:08;0.80;;;0.70;;
71288;SDS011;59068;52.502;9.860;2022-09-09T02:18:52;2.80;;;0.80;;
71288;SDS011;59068;52.502;9.860;2022-09-09T02:21:23;0.77;;;0.60;;
71288;SDS011;59068;52.502;9.860;2022-09-09T02:23:51;2.03;;;0.73;;
71288;SDS011;59068;52.502;9.860;2022-09-09T02:26:17;2.03;;;0.87;;
71288;SDS011;59068;52.502;9.860;2022-09-09T02:28:46;1.40;;;0.63;;
71288;SDS011;59068;52.502;9.860;2022-09-09T02:31:13;1.33;;;0.93;;
71288;SDS011;59068;52.502;9.860;2022-09-09T02:33:42;0.73;;;0.73;;
71288;SDS011;59068;52.502;9.860;2022-09-09T02:36:10;2.93;;;0.80;;
71288;SDS011;59068;52.502;9.860;2022-09-09T02:38:40;1.70;;;0.70;;
71288;SDS011;59068;52.502;9.860;2022-09-09T02:41:10;2.47;;;0.93;;
71288;SDS011;59068;52.502;9.860;2022-09-09T02:43:36;0.73;;;0.73;;
71288;SDS011;59068;52.502;9.860;2022-09-09T02:54:40;1.83;;;0.87;;
71288;SDS011;59068;52.502;9.860;2022-09-09T02:59:59;1.50;;;0.60;;
71288;SDS011;59068;52.502;9.860;2022-09-09T03:02:27;1.07;;;0.70;;
71288;SDS011;59068;52.502;9.860;2022-09-09T03:04:53;1.73;;;0.83;;
71288;SDS011;59068;52.502;9.860;2022-09-09T03:07:19;2.40;;;0.97;;
71288;SDS011;59068;52.502;9.860;2022-09-09T03:09:46;0.60;;;0.60;;
71288;SDS011;59068;52.502;9.860;2022-09-09T03:12:11;2.37;;;1.00;;
71288;SDS011;59068;52.502;9.860;2022-09-09T03:14:38;2.30;;;0.60;;
71288;SDS011;59068;52.502;9.860;2022-09-09T03:17:04;1.37;;;0.87;;
71288;SDS011;59068;52.502;9.860;2022-09-09T03:19:31;1.10;;;0.70;;
71288;SDS011;59068;52.502;9.860;2022-09-09T03:21:57;1.40;;;0.93;;
71288;SDS011;59068;52.502;9.860;2022-09-09T03:24:23;0.90;;;0.60;;
71288;SDS011;59068;52.502;9.860;2022-09-09T03:26:50;1.37;;;0.77;;
71288;SDS011;59068;52.502;9.860;2022-09-09T03:29:15;1.57;;;0.90;;
71288;SDS011;59068;52.502;9.860;2022-09-09T03:31:43;2.33;;;0.87;;
71288;SDS011;59068;52.502;9.860;2022-09-09T03:34:09;3.70;;;0.80;;
71288;SDS011;59068;52.502;9.860;2022-09-09T03:36:35;1.90;;;0.80;;
71288;SDS011;59068;52.502;9.860;2022-09-09T03:39:02;2.80;;;0.90;;
71288;SDS011;59068;52.502;9.860;2022-09-09T03:41:28;1.50;;;0.70;;
71288;SDS011;59068;52.502;9.860;2022-09-09T03:43:54;1.50;;;0.97;;
71288;SDS011;59068;52.502;9.860;2022-09-09T03:46:21;2.63;;;0.90;;
71288;SDS011;59068;52.502;9.860;2022-09-09T03:48:48;1.07;;;0.90;;
71288;SDS011;59068;52.502;9.860;2022-09-09T03:51:14;1.93;;;0.73;;
71288;SDS011;59068;52.502;9.860;2022-09-09T03:53:42;1.00;;;0.60;;
71288;SDS011;59068;52.502;9.860;2022-09-09T03:56:08;1.80;;;0.80;;
71288;SDS011;59068;52.502;9.860;2022-09-09T03:58:36;1.97;;;0.97;;
71288;SDS011;59068;52.502;9.860;2022-09-09T04:01:03;2.50;;;1.00;;
71288;SDS011;59068;52.502;9.860;2022-09-09T04:03:31;0.80;;;0.77;;
71288;SDS011;59068;52.502;9.860;2022-09-09T04:05:57;1.37;;;0.90;;
71288;SDS011;59068;52.502;9.860;2022-09-09T04:08:25;3.30;;;2.03;;
71288;SDS011;59068;52.502;9.860;2022-09-09T04:10:51;3.00;;;1.53;;
71288;SDS011;59068;52.502;9.860;2022-09-09T04:13:17;2.47;;;1.20;;
71288;SDS011;59068;52.502;9.860;2022-09-09T04:15:55;3.47;;;1.23;;
71288;SDS011;59068;52.502;9.860;2022-09-09T04:18:23;4.00;;;1.00;;
71288;SDS011;59068;52.502;9.860;2022-09-09T04:20:51;3.33;;;0.90;;
71288;SDS011;59068;52.502;9.860;2022-09-09T04:23:17;2.77;;;0.90;;
71288;SDS011;59068;52.502;9.860;2022-09-09T04:25:47;1.47;;;0.90;;
71288;SDS011;59068;52.502;9.860;2022-09-09T04:28:14;1.93;;;0.87;;
71288;SDS011;59068;52.502;9.860;2022-09-09T04:30:42;1.23;;;0.73;;
71288;SDS011;59068;52.502;9.860;2022-09-09T04:33:09;2.20;;;0.70;;
71288;SDS011;59068;52.502;9.860;2022-09-09T04:35:36;2.00;;;0.90;;
71288;SDS011;59068;52.502;9.860;2022-09-09T04:38:03;1.83;;;0.90;;
71288;SDS011;59068;52.502;9.860;2022-09-09T04:40:30;1.47;;;1.00;;
71288;SDS011;59068;52.502;9.860;2022-09-09T04:43:01;2.10;;;0.97;;
71288;SDS011;59068;52.502;9.860;2022-09-09T04:45:29;4.17;;;1.40;;
71288;SDS011;59068;52.502;9.860;2022-09-09T04:47:55;1.73;;;0.80;;
71288;SDS011;59068;52.502;9.860;2022-09-09T04:50:21;2.33;;;1.03;;
71288;SDS011;59068;52.502;9.860;2022-09-09T04:52:47;2.47;;;0.90;;
71288;SDS011;59068;52.502;9.860;2022-09-09T04:55:14;2.50;;;1.00;;
71288;SDS011;59068;52.502;9.860;2022-09-09T04:57:40;1.90;;;1.03;;
71288;SDS011;59068;52.502;9.860;2022-09-09T05:00:06;2.53;;;0.93;;
71288;SDS011;59068;52.502;9.860;2022-09-09T05:02:36;2.90;;;1.20;;
71288;SDS011;59068;52.502;9.860;2022-09-09T05:05:04;1.20;;;1.10;;
71288;SDS011;59068;52.502;9.860;2022-09-09T05:07:30;3.47;;;0.90;;
71288;SDS011;59068;52.502;9.860;2022-09-09T05:09:56;1.37;;;1.07;;
71288;SDS011;59068;52.502;9.860;2022-09-09T05:12:22;2.50;;;1.10;;
71288;SDS011;59068;52.502;9.860;2022-09-09T05:14:50;1.83;;;1.10;;
71288;SDS011;59068;52.502;9.860;2022-09-09T05:17:15;2.90;;;1.17;;
71288;SDS011;59068;52.502;9.860;2022-09-09T05:19:42;1.30;;;0.90;;
71288;SDS011;59068;52.502;9.860;2022-09-09T05:22:08;4.73;;;1.43;;
71288;SDS011;59068;52.502;9.860;2022-09-09T05:24:34;3.37;;;1.27;;
71288;SDS011;59068;52.502;9.860;2022-09-09T05:27:02;1.50;;;1.40;;
71288;SDS011;59068;52.502;9.860;2022-09-09T05:29:28;5.37;;;1.30;;
71288;SDS011;59068;52.502;9.860;2022-09-09T05:31:55;3.97;;;1.40;;
71288;SDS011;59068;52.502;9.860;2022-09-09T05:34:21;2.13;;;1.40;;
71288;SDS011;59068;52.502;9.860;2022-09-09T05:36:48;1.40;;;1.03;;
71288;SDS011;59068;52.502;9.860;2022-09-09T05:39:15;3.13;;;1.57;;
71288;SDS011;59068;52.502;9.860;2022-09-09T05:41:40;3.30;;;1.30;;
71288;SDS011;59068;52.502;9.860;2022-09-09T05:44:06;2.67;;;1.40;;
71288;SDS011;59068;52.502;9.860;2022-09-09T05:46:32;3.87;;;1.30;;
71288;SDS011;59068;52.502;9.860;2022-09-09T05:48:58;1.90;;;1.40;;
71288;SDS011;59068;52.502;9.860;2022-09-09T05:51:25;4.27;;;1.77;;
71288;SDS011;59068;52.502;9.860;2022-09-09T05:53:52;3.50;;;1.50;;
71288;SDS011;59068;52.502;9.860;2022-09-09T05:56:20;2.63;;;1.20;;
71288;SDS011;59068;52.502;9.860;2022-09-09T05:58:50;2.17;;;1.70;;
71288;SDS011;59068;52.502;9.860;2022-09-09T06:01:21;2.43;;;1.27;;
71288;SDS011;59068;52.502;9.860;2022-09-09T06:04:08;2.03;;;1.30;;
71288;SDS011;59068;52.502;9.860;2022-09-09T06:06:36;2.50;;;1.53;;
71288;SDS011;59068;52.502;9.860;2022-09-09T06:09:06;2.23;;;1.30;;
71288;SDS011;59068;52.502;9.860;2022-09-09T06:11:36;2.90;;;1.60;;
71288;SDS011;59068;52.502;9.860;2022-09-09T06:14:04;3.77;;;1.40;;
71288;SDS011;59068;52.502;9.860;2022-09-09T06:16:31;3.10;;;1.50;;
71288;SDS011;59068;52.502;9.860;2022-09-09T06:18:57;1.83;;;1.53;;
71288;SDS011;59068;52.502;9.860;2022-09-09T06:21:24;2.33;;;1.60;;
71288;SDS011;59068;52.502;9.860;2022-09-09T06:23:54;2.33;;;1.10;;
71288;SDS011;59068;52.502;9.860;2022-09-09T06:26:23;1.70;;;1.13;;
71288;SDS011;59068;52.502;9.860;2022-09-09T06:28:52;3.30;;;1.20;;
71288;SDS011;59068;52.502;9.860;2022-09-09T06:31:24;4.10;;;1.60;;
71288;SDS011;59068;52.502;9.860;2022-09-09T06:33:53;2.40;;;1.17;;
71288;SDS011;59068;52.502;9.860;2022-09-09T06:36:21;3.57;;;1.30;;
71288;SDS011;59068;52.502;9.860;2022-09-09T06:38:54;4.73;;;1.37;;
71288;SDS011;59068;52.502;9.860;2022-09-09T06:41:20;2.40;;;1.53;;
71288;SDS011;59068;52.502;9.860;2022-09-09T06:43:48;1.50;;;1.00;;
71288;SDS011;59068;52.502;9.860;2022-09-09T06:46:14;2.77;;;1.37;;
71288;SDS011;59068;52.502;9.860;2022-09-09T06:48:45;1.70;;;1.40;;
71288;SDS011;59068;52.502;9.860;2022-09-09T06:51:15;2.70;;;1.70;;
71288;SDS011;59068;52.502;9.860;2022-09-09T06:53:49;2.80;;;1.70;;
71288;SDS011;59068;52.502;9.860;2022-09-09T06:58:42;2.97;;;1.67;;
71288;SDS011;59068;52.502;9.860;2022-09-09T07:01:11;3.73;;;1.53;;
71288;SDS011;59068;52.502;9.860;2022-09-09T07:03:51;2.07;;;1.60;;
71288;SDS011;59068;52.502;9.860;2022-09-09T07:08:55;2.40;;;2.00;;
71288;SDS011;59068;52.502;9.860;2022-09-09T07:11:23;2.57;;;1.50;;
71288;SDS011;59068;52.502;9.860;2022-09-09T07:13:52;4.23;;;1.80;;
71288;SDS011;59068;52.502;9.860;2022-09-09T07:16:19;2.07;;;1.57;;
71288;SDS011;59068;52.502;9.860;2022-09-09T07:18:46;2.83;;;2.00;;
71288;SDS011;59068;52.502;9.860;2022-09-09T07:21:12;4.23;;;1.90;;
71288;SDS011;59068;52.502;9.860;2022-09-09T07:23:40;2.10;;;1.70;;
71288;SDS011;59068;52.502;9.860;2022-09-09T07:28:35;2.83;;;2.00;;
71288;SDS011;59068;52.502;9.860;2022-09-09T07:31:02;2.47;;;1.87;;
71288;SDS011;59068;52.502;9.860;2022-09-09T07:33:30;1.80;;;1.67;;
71288;SDS011;59068;52.502;9.860;2022-09-09T07:36:12;4.53;;;2.00;;
71288;SDS011;59068;52.502;9.860;2022-09-09T07:38:44;4.13;;;1.80;;
71288;SDS011;59068;52.502;9.860;2022-09-09T07:41:14;4.13;;;2.03;;
71288;SDS011;59068;52.502;9.860;2022-09-09T07:43:44;3.80;;;2.63;;
71288;SDS011;59068;52.502;9.860;2022-09-09T07:46:10;4.67;;;2.30;;
71288;SDS011;59068;52.502;9.860;2022-09-09T07:48:39;3.03;;;1.47;;
71288;SDS011;59068;52.502;9.860;2022-09-09T07:51:12;2.23;;;1.40;;
71288;SDS011;59068;52.502;9.860;2022-09-09T07:53:43;3.63;;;1.83;;
71288;SDS011;59068;52.502;9.860;2022-09-09T07:56:10;2.53;;;1.70;;
71288;SDS011;59068;52.502;9.860;2022-09-09T07:58:39;3.67;;;1.70;;
71288;SDS011;59068;52.502;9.860;2022-09-09T08:01:09;1.90;;;1.70;;
71288;SDS011;59068;52.502;9.860;2022-09-09T08:03:38;2.23;;;1.90;;
71288;SDS011;59068;52.502;9.860;2022-09-09T08:06:04;4.10;;;1.77;;
71288;SDS011;59068;52.502;9.860;2022-09-09T08:08:34;2.70;;;1.57;;
71288;SDS011;59068;52.502;9.860;2022-09-09T08:11:05;2.13;;;1.63;;
71288;SDS011;59068;52.502;9.860;2022-09-09T08:13:37;6.07;;;1.50;;
71288;SDS011;59068;52.502;9.860;2022-09-09T08:16:08;4.33;;;1.70;;
71288;SDS011;59068;52.502;9.860;2022-09-09T08:18:37;3.37;;;2.07;;
71288;SDS011;59068;52.502;9.860;2022-09-09T08:23:50;3.20;;;2.00;;
71288;SDS011;59068;52.502;9.860;2022-09-09T08:26:21;3.33;;;1.37;;
71288;SDS011;59068;52.502;9.860;2022-09-09T08:28:52;2.13;;;1.80;;
71288;SDS011;59068;52.502;9.860;2022-09-09T08:31:44;3.33;;;1.60;;
71288;SDS011;59068;52.502;9.860;2022-09-09T08:34:12;2.10;;;1.50;;
71288;SDS011;59068;52.502;9.860;2022-09-09T08:36:40;2.67;;;1.37;;
71288;SDS011;59068;52.502;9.860;2022-09-09T08:39:08;4.20;;;1.30;;
71288;SDS011;59068;52.502;9.860;2022-09-09T08:55:48;1.57;;;1.10;;
71288;SDS011;59068;52.502;9.860;2022-09-09T08:58:17;1.87;;;1.10;;
71288;SDS011;59068;52.502;9.860;2022-09-09T09:03:30;3.40;;;1.20;;
71288;SDS011;59068;52.502;9.860;2022-09-09T09:06:23;3.60;;;1.10;;
71288;SDS011;59068;52.502;9.860;2022-09-09T09:11:56;2.27;;;1.10;;
71288;SDS011;59068;52.502;9.860;2022-09-09T09:14:28;1.93;;;1.10;;
71288;SDS011;59068;52.502;9.860;2022-09-09T09:17:00;2.47;;;1.10;;
71288;SDS011;59068;52.502;9.860;2022-09-09T09:19:28;1.90;;;1.20;;
71288;SDS011;59068;52.502;9.860;2022-09-09T09:28:01;3.53;;;1.17;;
71288;SDS011;59068;52.502;9.860;2022-09-09T09:36:11;2.53;;;1.10;;
71288;SDS011;59068;52.502;9.860;2022-09-09T09:39:02;1.83;;;0.90;;
71288;SDS011;59068;52.502;9.860;2022-09-09T09:41:49;3.17;;;1.00;;
71288;SDS011;59068;52.502;9.860;2022-09-09T09:52:30;1.70;;;1.10;;
71288;SDS011;59068;52.502;9.860;2022-09-09T09:54:57;3.27;;;0.90;;
71288;SDS011;59068;52.502;9.860;2022-09-09T09:57:26;1.70;;;0.83;;
71288;SDS011;59068;52.502;9.860;2022-09-09T10:02:53;3.83;;;1.10;;
71288;SDS011;59068;52.502;9.860;2022-09-09T10:05:22;2.77;;;1.20;;
71288;SDS011;59068;52.502;9.860;2022-09-09T10:13:40;3.87;;;1.00;;
71288;SDS011;59068;52.502;9.860;2022-09-09T10:19:15;2.47;;;1.00;;
71288;SDS011;59068;52.502;9.860;2022-09-09T10:39:40;1.33;;;0.70;;
71288;SDS011;59068;52.502;9.860;2022-09-09T10:44:54;3.07;;;1.10;;
71288;SDS011;59068;52.502;9.860;2022-09-09T10:47:28;5.07;;;0.93;;
71288;SDS011;59068;52.502;9.860;2022-09-09T10:55:57;2.43;;;1.03;;
71288;SDS011;59068;52.502;9.860;2022-09-09T10:58:41;2.63;;;0.87;;
71288;SDS011;59068;52.502;9.860;2022-09-09T11:01:29;3.87;;;1.10;;
71288;SDS011;59068;52.502;9.860;2022-09-09T11:07:08;3.17;;;1.10;;
71288;SDS011;59068;52.502;9.860;2022-09-09T11:09:39;2.77;;;1.17;;
71288;SDS011;59068;52.502;9.860;2022-09-09T11:12:10;3.80;;;0.90;;
71288;SDS011;59068;52.502;9.860;2022-09-09T11:14:47;3.93;;;1.00;;
71288;SDS011;59068;52.502;9.860;2022-09-09T11:17:18;2.73;;;0.83;;
71288;SDS011;59068;52.502;9.860;2022-09-09T11:19:47;4.00;;;1.10;;
71288;SDS011;59068;52.502;9.860;2022-09-09T11:26:03;2.13;;;1.03;;
71288;SDS011;59068;52.502;9.860;2022-09-09T11:36:53;22.23;;;8.43;;
71288;SDS011;59068;52.502;9.860;2022-09-09T11:39:43;17.00;;;5.97;;
71288;SDS011;59068;52.502;9.860;2022-09-09T11:44:38;12.57;;;4.13;;
71288;SDS011;59068;52.502;9.860;2022-09-09T11:47:03;3.30;;;0.90;;
71288;SDS011;59068;52.502;9.860;2022-09-09T11:49:41;4.37;;;2.00;;
71288;SDS011;59068;52.502;9.860;2022-09-09T11:55:10;1.10;;;1.00;;
71288;SDS011;59068;52.502;9.860;2022-09-09T12:09:06;3.80;;;0.97;;
71288;SDS011;59068;52.502;9.860;2022-09-09T12:11:35;2.57;;;0.80;;
71288;SDS011;59068;52.502;9.860;2022-09-09T12:14:03;3.03;;;0.63;;
71288;SDS011;59068;52.502;9.860;2022-09-09T12:16:30;1.93;;;0.70;;
71288;SDS011;59068;52.502;9.860;2022-09-09T12:22:01;1.17;;;0.40;;
71288;SDS011;59068;52.502;9.860;2022-09-09T12:24:37;1.30;;;0.47;;
71288;SDS011;59068;52.502;9.860;2022-09-09T12:27:08;1.60;;;0.40;;
71288;SDS011;59068;52.502;9.860;2022-09-09T12:32:13;1.90;;;0.40;;
71288;SDS011;59068;52.502;9.860;2022-09-09T12:43:17;1.43;;;0.50;;
71288;SDS011;59068;52.502;9.860;2022-09-09T12:45:46;1.63;;;0.63;;
71288;SDS011;59068;52.502;9.860;2022-09-09T12:48:12;0.90;;;0.50;;
71288;SDS011;59068;52.502;9.860;2022-09-09T12:50:45;1.67;;;0.73;;
71288;SDS011;59068;52.502;9.860;2022-09-09T12:53:25;1.03;;;0.47;;
71288;SDS011;59068;52.502;9.860;2022-09-09T12:58:23;1.77;;;0.53;;
71288;SDS011;59068;52.502;9.860;2022-09-09T13:00:50;1.83;;;0.60;;
71288;SDS011;59068;52.502;9.860;2022-09-09T13:03:19;1.57;;;0.40;;
71288;SDS011;59068;52.502;9.860;2022-09-09T13:05:46;1.07;;;0.30;;
71288;SDS011;59068;52.502;9.860;2022-09-09T13:08:13;1.53;;;0.50;;
71288;SDS011;59068;52.502;9.860;2022-09-09T13:10:47;1.13;;;0.40;;
71288;SDS011;59068;52.502;9.860;2022-09-09T13:13:23;1.00;;;0.40;;
71288;SDS011;59068;52.502;9.860;2022-09-09T13:15:52;0.53;;;0.50;;
71288;SDS011;59068;52.502;9.860;2022-09-09T13:18:21;1.50;;;0.20;;
71288;SDS011;59068;52.502;9.860;2022-09-09T13:20:49;1.43;;;0.30;;
71288;SDS011;59068;52.502;9.860;2022-09-09T13:23:16;0.90;;;0.30;;
71288;SDS011;59068;52.502;9.860;2022-09-09T13:26:06;2.53;;;0.60;;
71288;SDS011;59068;52.502;9.860;2022-09-09T13:28:34;0.53;;;0.20;;
71288;SDS011;59068;52.502;9.860;2022-09-09T13:31:05;0.83;;;0.40;;
71288;SDS011;59068;52.502;9.860;2022-09-09T13:33:35;1.20;;;0.30;;
71288;SDS011;59068;52.502;9.860;2022-09-09T13:36:09;2.43;;;0.67;;
71288;SDS011;59068;52.502;9.860;2022-09-09T13:38:53;2.00;;;0.53;;
71288;SDS011;59068;52.502;9.860;2022-09-09T13:41:21;2.77;;;0.60;;
71288;SDS011;59068;52.502;9.860;2022-09-09T13:43:48;2.03;;;0.70;;
71288;SDS011;59068;52.502;9.860;2022-09-09T13:49:19;1.73;;;0.50;;
71288;SDS011;59068;52.502;9.860;2022-09-09T13:51:49;2.00;;;0.60;;
71288;SDS011;59068;52.502;9.860;2022-09-09T13:54:16;2.83;;;0.80;;
71288;SDS011;59068;52.502;9.860;2022-09-09T13:56:45;0.67;;;0.40;;
71288;SDS011;59068;52.502;9.860;2022-09-09T13:59:15;1.30;;;0.53;;
71288;SDS011;59068;52.502;9.860;2022-09-09T14:01:42;1.57;;;0.47;;
71288;SDS011;59068;52.502;9.860;2022-09-09T14:04:08;2.03;;;0.60;;
71288;SDS011;59068;52.502;9.860;2022-09-09T14:06:34;2.13;;;0.40;;
71288;SDS011;59068;52.502;9.860;2022-09-09T14:09:05;2.57;;;0.50;;
71288;SDS011;59068;52.502;9.860;2022-09-09T14:11:31;0.60;;;0.50;;
71288;SDS011;59068;52.502;9.860;2022-09-09T14:13:58;2.30;;;0.77;;
71288;SDS011;59068;52.502;9.860;2022-09-09T14:16:25;1.80;;;0.80;;
71288;SDS011;59068;52.502;9.860;2022-09-09T14:18:54;0.83;;;0.57;;
71288;SDS011;59068;52.502;9.860;2022-09-09T14:21:27;0.80;;;0.40;;
71288;SDS011;59068;52.502;9.860;2022-09-09T14:23:54;1.50;;;0.63;;
71288;SDS011;59068;52.502;9.860;2022-09-09T14:26:20;2.27;;;0.50;;
71288;SDS011;59068;52.502;9.860;2022-09-09T14:28:46;2.87;;;0.60;;
71288;SDS011;59068;52.502;9.860;2022-09-09T14:31:13;1.37;;;0.60;;
71288;SDS011;59068;52.502;9.860;2022-09-09T14:33:40;2.70;;;0.47;;
71288;SDS011;59068;52.502;9.860;2022-09-09T14:36:06;2.57;;;0.60;;
71288;SDS011;59068;52.502;9.860;2022-09-09T14:38:34;3.67;;;0.63;;
71288;SDS011;59068;52.502;9.860;2022-09-09T14:41:03;1.17;;;0.50;;
71288;SDS011;59068;52.502;9.860;2022-09-09T14:43:29;1.27;;;0.80;;
71288;SDS011;59068;52.502;9.860;2022-09-09T14:46:07;1.87;;;0.43;;
71288;SDS011;59068;52.502;9.860;2022-09-09T14:48:34;1.00;;;0.37;;
71288;SDS011;59068;52.502;9.860;2022-09-09T14:51:12;0.97;;;0.60;;
71288;SDS011;59068;52.502;9.860;2022-09-09T14:53:44;0.90;;;0.50;;
71288;SDS011;59068;52.502;9.860;2022-09-09T14:56:14;1.47;;;0.33;;
71288;SDS011;59068;52.502;9.860;2022-09-09T14:58:42;2.00;;;0.47;;
71288;SDS011;59068;52.502;9.860;2022-09-09T15:01:09;2.80;;;0.60;;
71288;SDS011;59068;52.502;9.860;2022-09-09T15:03:37;1.77;;;0.60;;
71288;SDS011;59068;52.502;9.860;2022-09-09T15:06:07;1.37;;;0.37;;
71288;SDS011;59068;52.502;9.860;2022-09-09T15:08:35;2.73;;;0.50;;
71288;SDS011;59068;52.502;9.860;2022-09-09T15:11:03;1.13;;;0.60;;
71288;SDS011;59068;52.502;9.860;2022-09-09T15:13:30;0.93;;;0.50;;
71288;SDS011;59068;52.502;9.860;2022-09-09T15:16:03;1.40;;;0.60;;
71288;SDS011;59068;52.502;9.860;2022-09-09T15:18:31;1.33;;;0.47;;
71288;SDS011;59068;52.502;9.860;2022-09-09T15:21:01;1.13;;;0.60;;
71288;SDS011;59068;52.502;9.860;2022-09-09T15:23:34;1.00;;;0.37;;
71288;SDS011;59068;52.502;9.860;2022-09-09T15:26:00;0.60;;;0.60;;
71288;SDS011;59068;52.502;9.860;2022-09-09T15:28:27;2.77;;;0.60;;
71288;SDS011;59068;52.502;9.860;2022-09-09T15:30:53;1.83;;;0.50;;
71288;SDS011;59068;52.502;9.860;2022-09-09T15:33:20;2.70;;;0.87;;
71288;SDS011;59068;52.502;9.860;2022-09-09T15:35:47;0.87;;;0.57;;
71288;SDS011;59068;52.502;9.860;2022-09-09T15:38:14;2.23;;;0.50;;
71288;SDS011;59068;52.502;9.860;2022-09-09T15:40:42;2.90;;;0.50;;
71288;SDS011;59068;52.502;9.860;2022-09-09T15:43:08;0.93;;;0.50;;
71288;SDS011;59068;52.502;9.860;2022-09-09T15:45:36;2.70;;;0.50;;
71288;SDS011;59068;52.502;9.860;2022-09-09T15:48:02;1.53;;;0.50;;
71288;SDS011;59068;52.502;9.860;2022-09-09T15:50:28;3.47;;;0.77;;
71288;SDS011;59068;52.502;9.860;2022-09-09T15:52:58;1.07;;;0.43;;
71288;SDS011;59068;52.502;9.860;2022-09-09T15:55:24;1.00;;;0.67;;
71288;SDS011;59068;52.502;9.860;2022-09-09T15:57:50;1.97;;;0.53;;
71288;SDS011;59068;52.502;9.860;2022-09-09T16:00:17;2.80;;;0.50;;
71288;SDS011;59068;52.502;9.860;2022-09-09T16:02:43;2.40;;;0.43;;
71288;SDS011;59068;52.502;9.860;2022-09-09T16:05:09;1.00;;;0.50;;
71288;SDS011;59068;52.502;9.860;2022-09-09T16:07:36;2.80;;;0.77;;
71288;SDS011;59068;52.502;9.860;2022-09-09T16:10:03;1.63;;;1.00;;
71288;SDS011;59068;52.502;9.860;2022-09-09T16:12:30;3.97;;;0.83;;
71288;SDS011;59068;52.502;9.860;2022-09-09T16:14:55;2.30;;;0.73;;
71288;SDS011;59068;52.502;9.860;2022-09-09T16:17:22;2.60;;;0.80;;
71288;SDS011;59068;52.502;9.860;2022-09-09T16:19:47;1.20;;;0.60;;
71288;SDS011;59068;52.502;9.860;2022-09-09T16:22:13;0.70;;;0.40;;
71288;SDS011;59068;52.502;9.860;2022-09-09T16:24:41;3.43;;;0.67;;
71288;SDS011;59068;52.502;9.860;2022-09-09T16:27:07;1.80;;;0.70;;
71288;SDS011;59068;52.502;9.860;2022-09-09T16:29:33;3.43;;;0.70;;
71288;SDS011;59068;52.502;9.860;2022-09-09T16:31:59;9.20;;;1.03;;
71288;SDS011;59068;52.502;9.860;2022-09-09T16:34:26;3.67;;;0.80;;
71288;SDS011;59068;52.502;9.860;2022-09-09T16:36:53;2.80;;;0.90;;
71288;SDS011;59068;52.502;9.860;2022-09-09T16:39:19;2.93;;;0.80;;
71288;SDS011;59068;52.502;9.860;2022-09-09T16:41:46;0.97;;;0.57;;
71288;SDS011;59068;52.502;9.860;2022-09-09T16:44:13;2.77;;;0.70;;
71288;SDS011;59068;52.502;9.860;2022-09-09T16:46:45;2.13;;;0.60;;
71288;SDS011;59068;52.502;9.860;2022-09-09T16:49:13;3.23;;;0.73;;
71288;SDS011;59068;52.502;9.860;2022-09-09T16:51:45;3.40;;;0.50;;
71288;SDS011;59068;52.502;9.860;2022-09-09T16:54:13;2.73;;;0.63;;
71288;SDS011;59068;52.502;9.860;2022-09-09T16:56:40;0.90;;;0.53;;
71288;SDS011;59068;52.502;9.860;2022-09-09T16:59:11;2.87;;;0.73;;
71288;SDS011;59068;52.502;9.860;2022-09-09T17:01:43;2.80;;;0.70;;
71288;SDS011;59068;52.502;9.860;2022-09-09T17:04:10;3.20;;;1.13;;
71288;SDS011;59068;52.502;9.860;2022-09-09T17:06:45;2.37;;;0.90;;
71288;SDS011;59068;52.502;9.860;2022-09-09T17:09:16;3.07;;;1.10;;
71288;SDS011;59068;52.502;9.860;2022-09-09T17:11:43;2.03;;;1.10;;
71288;SDS011;59068;52.502;9.860;2022-09-09T17:14:12;2.87;;;1.10;;
71288;SDS011;59068;52.502;9.860;2022-09-09T17:16:41;4.20;;;1.10;;
71288;SDS011;59068;52.502;9.860;2022-09-09T17:19:07;1.50;;;0.80;;
71288;SDS011;59068;52.502;9.860;2022-09-09T17:21:35;2.13;;;0.90;;
71288;SDS011;59068;52.502;9.860;2022-09-09T17:24:01;0.80;;;0.80;;
71288;SDS011;59068;52.502;9.860;2022-09-09T17:26:28;2.10;;;0.90;;
71288;SDS011;59068;52.502;9.860;2022-09-09T17:28:54;1.00;;;0.80;;
71288;SDS011;59068;52.502;9.860;2022-09-09T17:31:24;3.60;;;0.80;;
71288;SDS011;59068;52.502;9.860;2022-09-09T17:33:50;2.33;;;0.73;;
71288;SDS011;59068;52.502;9.860;2022-09-09T17:36:29;2.83;;;0.90;;
71288;SDS011;59068;52.502;9.860;2022-09-09T17:38:55;0.97;;;0.77;;
71288;SDS011;59068;52.502;9.860;2022-09-09T17:41:23;2.37;;;0.80;;
71288;SDS011;59068;52.502;9.860;2022-09-09T17:43:50;3.63;;;0.87;;
71288;SDS011;59068;52.502;9.860;2022-09-09T17:48:57;3.23;;;1.00;;
71288;SDS011;59068;52.502;9.860;2022-09-09T17:51:26;2.67;;;0.90;;
71288;SDS011;59068;52.502;9.860;2022-09-09T17:53:55;5.70;;;2.40;;
71288;SDS011;59068;52.502;9.860;2022-09-09T17:56:25;5.10;;;1.47;;
71288;SDS011;59068;52.502;9.860;2022-09-09T17:58:53;6.33;;;1.10;;
71288;SDS011;59068;52.502;9.860;2022-09-09T18:01:19;2.73;;;1.60;;
71288;SDS011;59068;52.502;9.860;2022-09-09T18:03:47;2.40;;;1.07;;
71288;SDS011;59068;52.502;9.860;2022-09-09T18:06:14;5.80;;;1.30;;
71288;SDS011;59068;52.502;9.860;2022-09-09T18:08:50;3.30;;;1.20;;
71288;SDS011;59068;52.502;9.860;2022-09-09T18:11:22;5.27;;;1.20;;
71288;SDS011;59068;52.502;9.860;2022-09-09T18:13:51;3.87;;;1.07;;
71288;SDS011;59068;52.502;9.860;2022-09-09T18:16:21;2.97;;;1.90;;
71288;SDS011;59068;52.502;9.860;2022-09-09T18:18:47;3.27;;;1.40;;
71288;SDS011;59068;52.502;9.860;2022-09-09T18:21:18;3.53;;;1.40;;
71288;SDS011;59068;52.502;9.860;2022-09-09T18:23:44;4.83;;;1.40;;
71288;SDS011;59068;52.502;9.860;2022-09-09T18:26:15;2.83;;;1.30;;
71288;SDS011;59068;52.502;9.860;2022-09-09T18:28:42;5.63;;;1.43;;